sensor_id;sensor_type;location;lat;lon;timestamp;P1;durP1;ratioP1;P2;durP2;ratioP2
74851;SDS011;63400;50.650;6.832;2023-08-12T00:00:05;22.20;;;10.35;;
74851;SDS011;63400;50.650;6.832;2023-08-12T00:02:43;24.40;;;11.85;;
74851;SDS011;63400;50.650;6.832;2023-08-12T00:05:10;28.00;;;12.88;;
74851;SDS011;63400;50.650;6.832;2023-08-12T00:07:37;25.95;;;11.70;;
74851;SDS011;63400;50.650;6.832;2023-08-12T00:10:03;27.08;;;11.75;;
74851;SDS011;63400;50.650;6.832;2023-08-12T00:12:32;27.30;;;12.48;;
74851;SDS011;63400;50.650;6.832;2023-08-12T00:14:58;25.38;;;11.65;;
74851;SDS011;63400;50.650;6.832;2023-08-12T00:17:23;24.77;;;11.48;;
74851;SDS011;63400;50.650;6.832;2023-08-12T00:19:49;28.08;;;12.50;;
74851;SDS011;63400;50.650;6.832;2023-08-12T00:22:15;26.83;;;12.45;;
74851;SDS011;63400;50.650;6.832;2023-08-12T00:24:40;22.33;;;11.18;;
74851;SDS011;63400;50.650;6.832;2023-08-12T00:27:06;26.08;;;12.57;;
74851;SDS011;63400;50.650;6.832;2023-08-12T00:29:33;27.13;;;13.07;;
74851;SDS011;63400;50.650;6.832;2023-08-12T00:31:59;23.02;;;10.80;;
74851;SDS011;63400;50.650;6.832;2023-08-12T00:34:25;23.55;;;10.20;;
74851;SDS011;63400;50.650;6.832;2023-08-12T00:36:51;22.90;;;9.38;;
74851;SDS011;63400;50.650;6.832;2023-08-12T00:39:16;26.58;;;10.38;;
74851;SDS011;63400;50.650;6.832;2023-08-12T00:41:42;24.45;;;9.98;;
74851;SDS011;63400;50.650;6.832;2023-08-12T00:44:07;24.25;;;10.70;;
74851;SDS011;63400;50.650;6.832;2023-08-12T00:46:33;23.67;;;10.90;;
74851;SDS011;63400;50.650;6.832;2023-08-12T00:48:59;21.17;;;9.55;;
74851;SDS011;63400;50.650;6.832;2023-08-12T00:51:25;20.92;;;8.35;;
74851;SDS011;63400;50.650;6.832;2023-08-12T00:53:51;22.55;;;9.50;;
74851;SDS011;63400;50.650;6.832;2023-08-12T00:56:17;24.50;;;9.30;;
74851;SDS011;63400;50.650;6.832;2023-08-12T00:58:42;24.17;;;9.65;;
74851;SDS011;63400;50.650;6.832;2023-08-12T01:01:08;20.58;;;8.68;;
74851;SDS011;63400;50.650;6.832;2023-08-12T01:03:34;20.63;;;8.77;;
74851;SDS011;63400;50.650;6.832;2023-08-12T01:06:00;21.33;;;9.23;;
74851;SDS011;63400;50.650;6.832;2023-08-12T01:08:27;22.58;;;9.55;;
74851;SDS011;63400;50.650;6.832;2023-08-12T01:10:58;21.23;;;9.60;;
74851;SDS011;63400;50.650;6.832;2023-08-12T01:14:33;22.05;;;9.27;;
74851;SDS011;63400;50.650;6.832;2023-08-12T01:16:40;25.27;;;9.90;;
74851;SDS011;63400;50.650;6.832;2023-08-12T01:19:10;23.75;;;9.82;;
74851;SDS011;63400;50.650;6.832;2023-08-12T01:21:36;23.85;;;9.75;;
74851;SDS011;63400;50.650;6.832;2023-08-12T01:24:07;24.05;;;10.32;;
74851;SDS011;63400;50.650;6.832;2023-08-12T01:26:32;23.85;;;10.23;;
74851;SDS011;63400;50.650;6.832;2023-08-12T01:28:58;21.23;;;10.35;;
74851;SDS011;63400;50.650;6.832;2023-08-12T01:31:26;25.73;;;12.38;;
74851;SDS011;63400;50.650;6.832;2023-08-12T01:34:06;28.65;;;12.13;;
74851;SDS011;63400;50.650;6.832;2023-08-12T01:36:34;28.98;;;12.05;;
74851;SDS011;63400;50.650;6.832;2023-08-12T01:39:01;28.25;;;12.57;;
74851;SDS011;63400;50.650;6.832;2023-08-12T01:41:26;26.55;;;12.15;;
74851;SDS011;63400;50.650;6.832;2023-08-12T01:43:52;29.58;;;12.10;;
74851;SDS011;63400;50.650;6.832;2023-08-12T01:46:17;25.38;;;11.13;;
74851;SDS011;63400;50.650;6.832;2023-08-12T01:48:43;30.48;;;12.50;;
74851;SDS011;63400;50.650;6.832;2023-08-12T01:51:08;27.60;;;12.23;;
74851;SDS011;63400;50.650;6.832;2023-08-12T01:53:34;28.23;;;11.52;;
74851;SDS011;63400;50.650;6.832;2023-08-12T01:55:59;26.75;;;11.43;;
74851;SDS011;63400;50.650;6.832;2023-08-12T01:58:25;31.63;;;12.77;;
74851;SDS011;63400;50.650;6.832;2023-08-12T02:00:54;28.08;;;12.57;;
74851;SDS011;63400;50.650;6.832;2023-08-12T02:03:19;28.58;;;12.35;;
74851;SDS011;63400;50.650;6.832;2023-08-12T02:05:45;25.25;;;11.70;;
74851;SDS011;63400;50.650;6.832;2023-08-12T02:08:10;28.75;;;12.52;;
74851;SDS011;63400;50.650;6.832;2023-08-12T02:10:36;25.58;;;11.23;;
74851;SDS011;63400;50.650;6.832;2023-08-12T02:13:02;26.50;;;11.55;;
74851;SDS011;63400;50.650;6.832;2023-08-12T02:15:28;30.73;;;12.50;;
74851;SDS011;63400;50.650;6.832;2023-08-12T02:17:56;28.85;;;12.68;;
74851;SDS011;63400;50.650;6.832;2023-08-12T02:20:22;28.67;;;12.88;;
74851;SDS011;63400;50.650;6.832;2023-08-12T02:22:49;29.60;;;11.88;;
74851;SDS011;63400;50.650;6.832;2023-08-12T02:25:15;28.90;;;12.20;;
74851;SDS011;63400;50.650;6.832;2023-08-12T02:27:40;28.90;;;11.95;;
74851;SDS011;63400;50.650;6.832;2023-08-12T02:30:06;29.25;;;11.60;;
74851;SDS011;63400;50.650;6.832;2023-08-12T02:32:32;29.35;;;11.95;;
74851;SDS011;63400;50.650;6.832;2023-08-12T02:34:58;30.35;;;12.10;;
74851;SDS011;63400;50.650;6.832;2023-08-12T02:37:26;23.38;;;10.65;;
74851;SDS011;63400;50.650;6.832;2023-08-12T02:39:51;30.23;;;12.10;;
74851;SDS011;63400;50.650;6.832;2023-08-12T02:42:17;29.48;;;11.48;;
74851;SDS011;63400;50.650;6.832;2023-08-12T02:44:45;27.00;;;11.40;;
74851;SDS011;63400;50.650;6.832;2023-08-12T02:47:11;26.95;;;10.65;;
74851;SDS011;63400;50.650;6.832;2023-08-12T02:49:36;30.10;;;11.10;;
74851;SDS011;63400;50.650;6.832;2023-08-12T02:52:02;28.65;;;11.00;;
74851;SDS011;63400;50.650;6.832;2023-08-12T02:54:27;25.75;;;10.63;;
74851;SDS011;63400;50.650;6.832;2023-08-12T02:56:53;26.70;;;10.60;;
74851;SDS011;63400;50.650;6.832;2023-08-12T02:59:18;26.65;;;10.13;;
74851;SDS011;63400;50.650;6.832;2023-08-12T03:01:44;27.05;;;10.07;;
74851;SDS011;63400;50.650;6.832;2023-08-12T03:04:12;23.95;;;10.13;;
74851;SDS011;63400;50.650;6.832;2023-08-12T03:06:37;24.55;;;9.63;;
74851;SDS011;63400;50.650;6.832;2023-08-12T03:09:03;26.83;;;9.40;;
74851;SDS011;63400;50.650;6.832;2023-08-12T03:11:29;23.95;;;9.05;;
74851;SDS011;63400;50.650;6.832;2023-08-12T03:13:54;23.95;;;9.40;;
74851;SDS011;63400;50.650;6.832;2023-08-12T03:16:20;26.40;;;9.80;;
74851;SDS011;63400;50.650;6.832;2023-08-12T03:18:48;25.17;;;9.88;;
74851;SDS011;63400;50.650;6.832;2023-08-12T03:21:16;24.45;;;9.13;;
74851;SDS011;63400;50.650;6.832;2023-08-12T03:23:42;21.67;;;9.43;;
74851;SDS011;63400;50.650;6.832;2023-08-12T03:26:07;22.98;;;9.15;;
74851;SDS011;63400;50.650;6.832;2023-08-12T03:28:33;23.27;;;8.68;;
74851;SDS011;63400;50.650;6.832;2023-08-12T03:30:58;24.02;;;8.85;;
74851;SDS011;63400;50.650;6.832;2023-08-12T03:33:24;25.45;;;9.30;;
74851;SDS011;63400;50.650;6.832;2023-08-12T03:35:49;23.38;;;9.20;;
74851;SDS011;63400;50.650;6.832;2023-08-12T03:38:15;23.80;;;9.02;;
74851;SDS011;63400;50.650;6.832;2023-08-12T03:40:41;22.25;;;9.10;;
74851;SDS011;63400;50.650;6.832;2023-08-12T03:43:07;23.15;;;9.20;;
74851;SDS011;63400;50.650;6.832;2023-08-12T03:45:42;23.98;;;9.23;;
74851;SDS011;63400;50.650;6.832;2023-08-12T03:48:08;22.55;;;8.35;;
74851;SDS011;63400;50.650;6.832;2023-08-12T03:50:34;23.65;;;8.77;;
74851;SDS011;63400;50.650;6.832;2023-08-12T03:53:03;23.38;;;8.68;;
74851;SDS011;63400;50.650;6.832;2023-08-12T03:55:32;24.27;;;8.85;;
74851;SDS011;63400;50.650;6.832;2023-08-12T03:57:58;24.70;;;8.85;;
74851;SDS011;63400;50.650;6.832;2023-08-12T04:00:30;22.40;;;8.80;;
74851;SDS011;63400;50.650;6.832;2023-08-12T04:02:56;22.98;;;8.40;;
74851;SDS011;63400;50.650;6.832;2023-08-12T04:05:21;24.48;;;8.55;;
74851;SDS011;63400;50.650;6.832;2023-08-12T04:07:47;21.08;;;8.30;;
74851;SDS011;63400;50.650;6.832;2023-08-12T04:10:12;26.23;;;8.40;;
74851;SDS011;63400;50.650;6.832;2023-08-12T04:12:39;20.00;;;7.57;;
74851;SDS011;63400;50.650;6.832;2023-08-12T04:15:05;20.80;;;7.55;;
74851;SDS011;63400;50.650;6.832;2023-08-12T04:17:31;20.45;;;7.10;;
74851;SDS011;63400;50.650;6.832;2023-08-12T04:19:57;22.40;;;7.82;;
74851;SDS011;63400;50.650;6.832;2023-08-12T04:22:22;20.48;;;7.10;;
74851;SDS011;63400;50.650;6.832;2023-08-12T04:24:48;21.52;;;7.72;;
74851;SDS011;63400;50.650;6.832;2023-08-12T04:27:13;21.65;;;8.30;;
74851;SDS011;63400;50.650;6.832;2023-08-12T04:29:41;18.92;;;7.47;;
74851;SDS011;63400;50.650;6.832;2023-08-12T04:32:06;19.92;;;7.35;;
74851;SDS011;63400;50.650;6.832;2023-08-12T04:34:32;17.27;;;6.38;;
74851;SDS011;63400;50.650;6.832;2023-08-12T04:36:57;23.30;;;7.72;;
74851;SDS011;63400;50.650;6.832;2023-08-12T04:39:23;20.10;;;6.13;;
74851;SDS011;63400;50.650;6.832;2023-08-12T04:41:48;17.92;;;5.68;;
74851;SDS011;63400;50.650;6.832;2023-08-12T04:44:14;20.17;;;6.20;;
74851;SDS011;63400;50.650;6.832;2023-08-12T04:46:39;17.35;;;5.22;;
74851;SDS011;63400;50.650;6.832;2023-08-12T04:49:05;19.30;;;5.60;;
74851;SDS011;63400;50.650;6.832;2023-08-12T04:51:30;20.52;;;5.78;;
74851;SDS011;63400;50.650;6.832;2023-08-12T04:53:56;19.08;;;6.03;;
74851;SDS011;63400;50.650;6.832;2023-08-12T04:56:22;16.77;;;5.72;;
74851;SDS011;63400;50.650;6.832;2023-08-12T05:01:14;17.20;;;4.80;;
74851;SDS011;63400;50.650;6.832;2023-08-12T05:03:40;16.02;;;4.88;;
74851;SDS011;63400;50.650;6.832;2023-08-12T05:06:05;18.48;;;5.55;;
74851;SDS011;63400;50.650;6.832;2023-08-12T05:08:31;16.02;;;5.18;;
74851;SDS011;63400;50.650;6.832;2023-08-12T05:10:57;16.83;;;5.65;;
74851;SDS011;63400;50.650;6.832;2023-08-12T05:13:23;17.60;;;5.82;;
74851;SDS011;63400;50.650;6.832;2023-08-12T05:15:48;17.60;;;5.25;;
74851;SDS011;63400;50.650;6.832;2023-08-12T05:18:14;20.73;;;6.20;;
74851;SDS011;63400;50.650;6.832;2023-08-12T05:20:40;20.13;;;6.15;;
74851;SDS011;63400;50.650;6.832;2023-08-12T05:23:07;18.42;;;5.72;;
74851;SDS011;63400;50.650;6.832;2023-08-12T05:25:32;19.08;;;5.78;;
74851;SDS011;63400;50.650;6.832;2023-08-12T05:28:01;18.48;;;5.82;;
74851;SDS011;63400;50.650;6.832;2023-08-12T05:30:26;18.85;;;6.00;;
74851;SDS011;63400;50.650;6.832;2023-08-12T05:32:55;16.90;;;5.22;;
74851;SDS011;63400;50.650;6.832;2023-08-12T05:35:20;16.98;;;5.40;;
74851;SDS011;63400;50.650;6.832;2023-08-12T05:37:46;18.15;;;5.10;;
74851;SDS011;63400;50.650;6.832;2023-08-12T05:40:11;16.02;;;4.95;;
74851;SDS011;63400;50.650;6.832;2023-08-12T05:42:37;16.73;;;5.13;;
74851;SDS011;63400;50.650;6.832;2023-08-12T05:45:02;16.85;;;5.05;;
74851;SDS011;63400;50.650;6.832;2023-08-12T05:47:29;15.77;;;5.20;;
74851;SDS011;63400;50.650;6.832;2023-08-12T05:49:54;15.52;;;4.90;;
74851;SDS011;63400;50.650;6.832;2023-08-12T05:52:20;16.10;;;5.03;;
74851;SDS011;63400;50.650;6.832;2023-08-12T05:54:48;15.98;;;4.47;;
74851;SDS011;63400;50.650;6.832;2023-08-12T05:57:13;18.50;;;4.78;;
74851;SDS011;63400;50.650;6.832;2023-08-12T05:59:39;15.52;;;4.22;;
74851;SDS011;63400;50.650;6.832;2023-08-12T06:02:05;17.40;;;5.07;;
74851;SDS011;63400;50.650;6.832;2023-08-12T06:04:31;16.70;;;5.03;;
74851;SDS011;63400;50.650;6.832;2023-08-12T06:06:56;14.80;;;4.25;;
74851;SDS011;63400;50.650;6.832;2023-08-12T06:09:22;20.70;;;5.10;;
74851;SDS011;63400;50.650;6.832;2023-08-12T06:17:39;16.23;;;3.83;;
74851;SDS011;63400;50.650;6.832;2023-08-12T06:20:04;16.60;;;4.30;;
74851;SDS011;63400;50.650;6.832;2023-08-12T06:22:30;19.60;;;5.28;;
74851;SDS011;63400;50.650;6.832;2023-08-12T06:24:56;17.77;;;4.70;;
74851;SDS011;63400;50.650;6.832;2023-08-12T06:27:21;15.60;;;4.40;;
74851;SDS011;63400;50.650;6.832;2023-08-12T06:29:46;18.45;;;4.55;;
74851;SDS011;63400;50.650;6.832;2023-08-12T06:32:12;17.25;;;4.72;;
74851;SDS011;63400;50.650;6.832;2023-08-12T06:34:39;17.67;;;5.07;;
74851;SDS011;63400;50.650;6.832;2023-08-12T06:37:05;18.73;;;4.97;;
74851;SDS011;63400;50.650;6.832;2023-08-12T06:39:30;15.95;;;4.38;;
74851;SDS011;63400;50.650;6.832;2023-08-12T06:41:56;14.27;;;4.65;;
74851;SDS011;63400;50.650;6.832;2023-08-12T06:44:21;22.33;;;5.18;;
74851;SDS011;63400;50.650;6.832;2023-08-12T06:46:47;18.65;;;5.47;;
74851;SDS011;63400;50.650;6.832;2023-08-12T06:49:12;19.08;;;5.00;;
74851;SDS011;63400;50.650;6.832;2023-08-12T06:51:38;15.73;;;4.38;;
74851;SDS011;63400;50.650;6.832;2023-08-12T06:54:03;13.48;;;3.83;;
74851;SDS011;63400;50.650;6.832;2023-08-12T06:56:29;15.98;;;4.32;;
74851;SDS011;63400;50.650;6.832;2023-08-12T06:58:55;16.35;;;4.45;;
74851;SDS011;63400;50.650;6.832;2023-08-12T07:01:20;14.90;;;3.97;;
74851;SDS011;63400;50.650;6.832;2023-08-12T07:03:45;13.65;;;3.75;;
74851;SDS011;63400;50.650;6.832;2023-08-12T07:06:11;15.57;;;4.18;;
74851;SDS011;63400;50.650;6.832;2023-08-12T07:08:36;16.42;;;4.53;;
74851;SDS011;63400;50.650;6.832;2023-08-12T07:11:02;16.48;;;4.55;;
74851;SDS011;63400;50.650;6.832;2023-08-12T07:13:28;15.40;;;4.65;;
74851;SDS011;63400;50.650;6.832;2023-08-12T07:15:53;16.73;;;4.60;;
74851;SDS011;63400;50.650;6.832;2023-08-12T07:18:22;17.50;;;4.82;;
74851;SDS011;63400;50.650;6.832;2023-08-12T07:20:48;19.35;;;4.88;;
74851;SDS011;63400;50.650;6.832;2023-08-12T07:23:13;19.10;;;5.03;;
74851;SDS011;63400;50.650;6.832;2023-08-12T07:25:39;16.42;;;4.57;;
74851;SDS011;63400;50.650;6.832;2023-08-12T07:28:05;19.17;;;5.38;;
74851;SDS011;63400;50.650;6.832;2023-08-12T07:30:30;14.80;;;4.10;;
74851;SDS011;63400;50.650;6.832;2023-08-12T07:32:58;17.70;;;5.28;;
74851;SDS011;63400;50.650;6.832;2023-08-12T07:35:24;21.05;;;5.35;;
74851;SDS011;63400;50.650;6.832;2023-08-12T07:37:49;17.35;;;5.18;;
74851;SDS011;63400;50.650;6.832;2023-08-12T07:40:18;17.88;;;4.88;;
74851;SDS011;63400;50.650;6.832;2023-08-12T07:42:46;18.42;;;5.18;;
74851;SDS011;63400;50.650;6.832;2023-08-12T07:45:12;16.48;;;4.93;;
74851;SDS011;63400;50.650;6.832;2023-08-12T07:47:38;14.95;;;4.95;;
74851;SDS011;63400;50.650;6.832;2023-08-12T07:50:06;16.48;;;5.13;;
74851;SDS011;63400;50.650;6.832;2023-08-12T07:52:32;15.32;;;4.53;;
74851;SDS011;63400;50.650;6.832;2023-08-12T07:54:58;18.00;;;4.90;;
74851;SDS011;63400;50.650;6.832;2023-08-12T07:57:23;13.82;;;4.47;;
74851;SDS011;63400;50.650;6.832;2023-08-12T07:59:49;16.90;;;5.07;;
74851;SDS011;63400;50.650;6.832;2023-08-12T08:02:16;13.77;;;4.45;;
74851;SDS011;63400;50.650;6.832;2023-08-12T08:04:41;17.10;;;5.75;;
74851;SDS011;63400;50.650;6.832;2023-08-12T08:07:07;20.33;;;5.90;;
74851;SDS011;63400;50.650;6.832;2023-08-12T08:09:32;15.55;;;4.78;;
74851;SDS011;63400;50.650;6.832;2023-08-12T08:11:58;15.13;;;4.72;;
74851;SDS011;63400;50.650;6.832;2023-08-12T08:14:25;18.08;;;5.60;;
74851;SDS011;63400;50.650;6.832;2023-08-12T08:16:54;13.88;;;4.35;;
74851;SDS011;63400;50.650;6.832;2023-08-12T08:19:19;17.17;;;5.50;;
74851;SDS011;63400;50.650;6.832;2023-08-12T08:21:44;16.05;;;5.18;;
74851;SDS011;63400;50.650;6.832;2023-08-12T08:24:10;16.08;;;5.30;;
74851;SDS011;63400;50.650;6.832;2023-08-12T08:26:38;16.02;;;5.45;;
74851;SDS011;63400;50.650;6.832;2023-08-12T08:29:05;14.32;;;4.78;;
74851;SDS011;63400;50.650;6.832;2023-08-12T08:31:31;16.25;;;5.40;;
74851;SDS011;63400;50.650;6.832;2023-08-12T08:33:57;14.32;;;5.03;;
74851;SDS011;63400;50.650;6.832;2023-08-12T08:36:23;15.15;;;4.68;;
74851;SDS011;63400;50.650;6.832;2023-08-12T08:38:49;16.63;;;5.07;;
74851;SDS011;63400;50.650;6.832;2023-08-12T08:41:14;15.82;;;4.90;;
74851;SDS011;63400;50.650;6.832;2023-08-12T08:43:41;14.00;;;4.65;;
74851;SDS011;63400;50.650;6.832;2023-08-12T08:46:10;13.52;;;4.40;;
74851;SDS011;63400;50.650;6.832;2023-08-12T08:48:36;16.27;;;4.50;;
74851;SDS011;63400;50.650;6.832;2023-08-12T08:51:02;12.02;;;4.35;;
74851;SDS011;63400;50.650;6.832;2023-08-12T08:53:28;14.23;;;4.70;;
74851;SDS011;63400;50.650;6.832;2023-08-12T08:55:54;16.80;;;5.32;;
74851;SDS011;63400;50.650;6.832;2023-08-12T08:58:20;12.55;;;3.88;;
74851;SDS011;63400;50.650;6.832;2023-08-12T09:00:46;13.93;;;4.60;;
74851;SDS011;63400;50.650;6.832;2023-08-12T09:03:12;13.25;;;4.55;;
74851;SDS011;63400;50.650;6.832;2023-08-12T09:05:38;10.82;;;3.88;;
74851;SDS011;63400;50.650;6.832;2023-08-12T09:08:04;11.68;;;4.32;;
74851;SDS011;63400;50.650;6.832;2023-08-12T09:10:32;13.13;;;4.18;;
74851;SDS011;63400;50.650;6.832;2023-08-12T09:12:58;15.55;;;5.05;;
74851;SDS011;63400;50.650;6.832;2023-08-12T09:15:23;16.00;;;5.25;;
74851;SDS011;63400;50.650;6.832;2023-08-12T09:17:49;12.13;;;3.83;;
74851;SDS011;63400;50.650;6.832;2023-08-12T09:20:14;12.40;;;4.30;;
74851;SDS011;63400;50.650;6.832;2023-08-12T09:22:41;11.13;;;3.97;;
74851;SDS011;63400;50.650;6.832;2023-08-12T09:25:07;16.58;;;6.60;;
74851;SDS011;63400;50.650;6.832;2023-08-12T09:27:35;11.98;;;4.13;;
74851;SDS011;63400;50.650;6.832;2023-08-12T09:30:02;12.55;;;4.05;;
74851;SDS011;63400;50.650;6.832;2023-08-12T09:32:28;8.55;;;3.10;;
74851;SDS011;63400;50.650;6.832;2023-08-12T09:34:54;11.18;;;4.03;;
74851;SDS011;63400;50.650;6.832;2023-08-12T09:37:20;12.50;;;3.97;;
74851;SDS011;63400;50.650;6.832;2023-08-12T09:39:47;12.63;;;3.90;;
74851;SDS011;63400;50.650;6.832;2023-08-12T09:42:14;10.93;;;3.58;;
74851;SDS011;63400;50.650;6.832;2023-08-12T09:44:41;10.95;;;3.75;;
74851;SDS011;63400;50.650;6.832;2023-08-12T09:47:07;19.65;;;4.55;;
74851;SDS011;63400;50.650;6.832;2023-08-12T09:49:37;11.20;;;3.97;;
74851;SDS011;63400;50.650;6.832;2023-08-12T09:52:03;12.23;;;4.20;;
74851;SDS011;63400;50.650;6.832;2023-08-12T09:54:33;11.27;;;3.95;;
74851;SDS011;63400;50.650;6.832;2023-08-12T09:57:00;12.55;;;4.28;;
74851;SDS011;63400;50.650;6.832;2023-08-12T09:59:31;12.88;;;4.47;;
74851;SDS011;63400;50.650;6.832;2023-08-12T10:02:01;12.75;;;4.45;;
74851;SDS011;63400;50.650;6.832;2023-08-12T10:04:50;10.27;;;4.03;;
74851;SDS011;63400;50.650;6.832;2023-08-12T10:07:20;17.27;;;6.50;;
74851;SDS011;63400;50.650;6.832;2023-08-12T10:09:46;11.32;;;4.18;;
74851;SDS011;63400;50.650;6.832;2023-08-12T10:12:12;15.50;;;4.32;;
74851;SDS011;63400;50.650;6.832;2023-08-12T10:14:38;14.20;;;4.65;;
74851;SDS011;63400;50.650;6.832;2023-08-12T10:17:04;14.20;;;4.38;;
74851;SDS011;63400;50.650;6.832;2023-08-12T10:19:30;13.32;;;4.85;;
74851;SDS011;63400;50.650;6.832;2023-08-12T10:21:56;18.20;;;5.50;;
74851;SDS011;63400;50.650;6.832;2023-08-12T10:24:23;15.35;;;5.03;;
74851;SDS011;63400;50.650;6.832;2023-08-12T10:26:49;13.93;;;4.13;;
74851;SDS011;63400;50.650;6.832;2023-08-12T10:29:15;16.23;;;5.10;;
74851;SDS011;63400;50.650;6.832;2023-08-12T10:31:41;10.70;;;4.22;;
74851;SDS011;63400;50.650;6.832;2023-08-12T10:34:17;15.00;;;5.00;;
74851;SDS011;63400;50.650;6.832;2023-08-12T10:36:46;14.30;;;4.85;;
74851;SDS011;63400;50.650;6.832;2023-08-12T10:39:13;12.93;;;4.70;;
74851;SDS011;63400;50.650;6.832;2023-08-12T10:41:39;13.07;;;4.57;;
74851;SDS011;63400;50.650;6.832;2023-08-12T10:44:16;11.80;;;4.22;;
74851;SDS011;63400;50.650;6.832;2023-08-12T10:46:41;13.70;;;4.32;;
74851;SDS011;63400;50.650;6.832;2023-08-12T10:49:15;13.98;;;4.97;;
74851;SDS011;63400;50.650;6.832;2023-08-12T10:51:44;13.55;;;4.70;;
74851;SDS011;63400;50.650;6.832;2023-08-12T11:02:29;12.20;;;4.35;;
74851;SDS011;63400;50.650;6.832;2023-08-12T11:05:05;11.05;;;4.13;;
74851;SDS011;63400;50.650;6.832;2023-08-12T11:07:43;11.60;;;4.25;;
74851;SDS011;63400;50.650;6.832;2023-08-12T11:10:23;12.70;;;4.43;;
74851;SDS011;63400;50.650;6.832;2023-08-12T11:15:36;15.27;;;5.20;;
74851;SDS011;63400;50.650;6.832;2023-08-12T11:18:07;12.98;;;4.72;;
74851;SDS011;63400;50.650;6.832;2023-08-12T11:20:37;9.90;;;3.67;;
74851;SDS011;63400;50.650;6.832;2023-08-12T11:23:04;12.63;;;4.03;;
74851;SDS011;63400;50.650;6.832;2023-08-12T11:25:31;13.82;;;4.75;;
74851;SDS011;63400;50.650;6.832;2023-08-12T11:27:58;11.25;;;4.18;;
74851;SDS011;63400;50.650;6.832;2023-08-12T11:30:24;11.02;;;3.53;;
74851;SDS011;63400;50.650;6.832;2023-08-12T11:32:50;12.25;;;4.55;;
74851;SDS011;63400;50.650;6.832;2023-08-12T11:35:17;10.77;;;4.03;;
74851;SDS011;63400;50.650;6.832;2023-08-12T11:37:44;13.25;;;4.63;;
74851;SDS011;63400;50.650;6.832;2023-08-12T11:40:11;11.32;;;4.15;;
74851;SDS011;63400;50.650;6.832;2023-08-12T11:42:41;9.25;;;4.07;;
74851;SDS011;63400;50.650;6.832;2023-08-12T11:45:09;7.05;;;2.67;;
74851;SDS011;63400;50.650;6.832;2023-08-12T11:47:38;11.07;;;3.92;;
74851;SDS011;63400;50.650;6.832;2023-08-12T11:50:04;12.32;;;3.80;;
74851;SDS011;63400;50.650;6.832;2023-08-12T11:52:31;8.43;;;3.03;;
74851;SDS011;63400;50.650;6.832;2023-08-12T11:54:57;10.55;;;3.97;;
74851;SDS011;63400;50.650;6.832;2023-08-12T11:57:23;10.23;;;3.80;;
74851;SDS011;63400;50.650;6.832;2023-08-12T11:59:49;11.93;;;3.97;;
74851;SDS011;63400;50.650;6.832;2023-08-12T12:02:15;8.98;;;3.22;;
74851;SDS011;63400;50.650;6.832;2023-08-12T12:04:41;7.68;;;2.90;;
74851;SDS011;63400;50.650;6.832;2023-08-12T12:07:20;13.85;;;4.28;;
74851;SDS011;63400;50.650;6.832;2023-08-12T12:09:50;10.18;;;3.47;;
74851;SDS011;63400;50.650;6.832;2023-08-12T12:12:17;11.20;;;4.13;;
74851;SDS011;63400;50.650;6.832;2023-08-12T12:14:42;9.90;;;3.47;;
74851;SDS011;63400;50.650;6.832;2023-08-12T12:17:08;10.75;;;3.58;;
74851;SDS011;63400;50.650;6.832;2023-08-12T12:19:35;10.90;;;3.83;;
74851;SDS011;63400;50.650;6.832;2023-08-12T12:22:02;8.90;;;3.40;;
74851;SDS011;63400;50.650;6.832;2023-08-12T12:24:29;8.27;;;3.15;;
74851;SDS011;63400;50.650;6.832;2023-08-12T12:26:55;9.52;;;3.30;;
74851;SDS011;63400;50.650;6.832;2023-08-12T12:29:22;11.25;;;3.65;;
74851;SDS011;63400;50.650;6.832;2023-08-12T12:31:47;12.23;;;4.05;;
74851;SDS011;63400;50.650;6.832;2023-08-12T12:34:13;10.27;;;3.72;;
74851;SDS011;63400;50.650;6.832;2023-08-12T12:36:39;8.65;;;3.33;;
74851;SDS011;63400;50.650;6.832;2023-08-12T12:39:08;7.90;;;2.92;;
74851;SDS011;63400;50.650;6.832;2023-08-12T12:41:34;7.95;;;2.72;;
74851;SDS011;63400;50.650;6.832;2023-08-12T12:44:00;15.15;;;4.50;;
74851;SDS011;63400;50.650;6.832;2023-08-12T12:46:29;10.07;;;4.13;;
74851;SDS011;63400;50.650;6.832;2023-08-12T12:48:54;9.05;;;3.67;;
74851;SDS011;63400;50.650;6.832;2023-08-12T12:51:20;8.40;;;2.90;;
74851;SDS011;63400;50.650;6.832;2023-08-12T12:53:45;10.25;;;4.00;;
74851;SDS011;63400;50.650;6.832;2023-08-12T12:56:11;9.75;;;3.78;;
74851;SDS011;63400;50.650;6.832;2023-08-12T12:58:36;9.45;;;3.20;;
74851;SDS011;63400;50.650;6.832;2023-08-12T13:01:03;8.07;;;3.13;;
74851;SDS011;63400;50.650;6.832;2023-08-12T13:03:29;11.00;;;3.63;;
74851;SDS011;63400;50.650;6.832;2023-08-12T13:08:21;10.45;;;3.67;;
74851;SDS011;63400;50.650;6.832;2023-08-12T13:10:47;11.65;;;3.55;;
74851;SDS011;63400;50.650;6.832;2023-08-12T13:13:16;11.27;;;3.70;;
74851;SDS011;63400;50.650;6.832;2023-08-12T13:15:43;9.80;;;3.38;;
74851;SDS011;63400;50.650;6.832;2023-08-12T13:18:12;6.85;;;2.70;;
74851;SDS011;63400;50.650;6.832;2023-08-12T13:20:38;9.30;;;3.05;;
74851;SDS011;63400;50.650;6.832;2023-08-12T13:23:04;11.60;;;4.00;;
74851;SDS011;63400;50.650;6.832;2023-08-12T13:25:30;11.73;;;3.90;;
74851;SDS011;63400;50.650;6.832;2023-08-12T13:28:02;7.85;;;2.88;;
74851;SDS011;63400;50.650;6.832;2023-08-12T13:30:29;9.45;;;3.05;;
74851;SDS011;63400;50.650;6.832;2023-08-12T13:32:55;6.78;;;2.78;;
74851;SDS011;63400;50.650;6.832;2023-08-12T13:35:21;12.55;;;4.20;;
74851;SDS011;63400;50.650;6.832;2023-08-12T13:37:46;8.85;;;3.47;;
74851;SDS011;63400;50.650;6.832;2023-08-12T13:40:12;9.00;;;3.47;;
74851;SDS011;63400;50.650;6.832;2023-08-12T13:42:40;7.70;;;2.90;;
74851;SDS011;63400;50.650;6.832;2023-08-12T13:45:06;6.72;;;2.67;;
74851;SDS011;63400;50.650;6.832;2023-08-12T13:47:33;6.43;;;2.40;;
74851;SDS011;63400;50.650;6.832;2023-08-12T13:49:59;6.47;;;2.30;;
74851;SDS011;63400;50.650;6.832;2023-08-12T13:52:24;7.25;;;2.17;;
74851;SDS011;63400;50.650;6.832;2023-08-12T13:54:53;7.97;;;2.58;;
74851;SDS011;63400;50.650;6.832;2023-08-12T13:57:18;9.23;;;2.95;;
74851;SDS011;63400;50.650;6.832;2023-08-12T13:59:44;7.68;;;2.80;;
74851;SDS011;63400;50.650;6.832;2023-08-12T14:02:10;8.57;;;2.72;;
74851;SDS011;63400;50.650;6.832;2023-08-12T14:04:36;8.63;;;2.88;;
74851;SDS011;63400;50.650;6.832;2023-08-12T14:07:03;6.97;;;2.80;;
74851;SDS011;63400;50.650;6.832;2023-08-12T14:11:54;13.48;;;3.83;;
74851;SDS011;63400;50.650;6.832;2023-08-12T14:14:20;9.13;;;3.00;;
74851;SDS011;63400;50.650;6.832;2023-08-12T14:16:45;8.77;;;3.63;;
74851;SDS011;63400;50.650;6.832;2023-08-12T14:19:11;8.10;;;2.80;;
74851;SDS011;63400;50.650;6.832;2023-08-12T14:21:36;8.73;;;2.78;;
74851;SDS011;63400;50.650;6.832;2023-08-12T14:24:02;8.23;;;3.30;;
74851;SDS011;63400;50.650;6.832;2023-08-12T14:26:27;11.63;;;3.70;;
74851;SDS011;63400;50.650;6.832;2023-08-12T14:28:53;10.90;;;3.90;;
74851;SDS011;63400;50.650;6.832;2023-08-12T14:31:19;9.85;;;3.50;;
74851;SDS011;63400;50.650;6.832;2023-08-12T14:33:44;9.25;;;3.13;;
74851;SDS011;63400;50.650;6.832;2023-08-12T14:36:10;15.25;;;4.65;;
74851;SDS011;63400;50.650;6.832;2023-08-12T14:38:35;9.38;;;3.25;;
74851;SDS011;63400;50.650;6.832;2023-08-12T14:41:01;9.38;;;2.80;;
74851;SDS011;63400;50.650;6.832;2023-08-12T14:43:26;10.93;;;3.08;;
74851;SDS011;63400;50.650;6.832;2023-08-12T14:45:52;7.40;;;2.83;;
74851;SDS011;63400;50.650;6.832;2023-08-12T14:48:17;8.73;;;2.80;;
74851;SDS011;63400;50.650;6.832;2023-08-12T14:50:43;18.27;;;6.20;;
74851;SDS011;63400;50.650;6.832;2023-08-12T14:53:09;12.77;;;4.85;;